Accueil
METAR-TAF:

METAR-TAF

Aéroports :

Harbin, Chine

Aéroport international de Harbin Taiping

latitude: 45-45N, longitude: 126-46E, altitude: 143 m

Observation

Le bulletin a été fait il y a 21 minutes, à 16:00 UTC
Vent 12 kt de ouest/sud-ouest
Température 7°C
Humidité 66%
Pression 1014 hPa
Visibilité 10 km ou plus
pas de nuages en-dessous de 1500 mètres et pas de cumulonimbus.

METAR: ZYHB 261600Z 24006MPS CAVOK 07/01 Q1014 NOSIG

Heure: 00:21 (16:21 UTC)

Prévision

Le bulletin a été fait il y a 7 heures et 16 minutes, à 09:05 UTC
Prévision valable du 26 à 12 UTC au 27 à 12 UTC
Vent 8 kt de ouest
Visibilité: 6000 m
Nuages épars à une hauteur de 3000 ft

TAF: ZYHB 260905Z 2612/2712 27004MPS 6000 SCT030 TX15/2706Z TN08/2621Z

Observations et prévisions météorologiques de plus de 4000 aéroports (messages METAR et TAF).

Les stations disponibles sont représentées par des disques jaunes et rouges sur la carte.

Passer la souris dessus pour voir le nom de la station.

Cliquer dessus pour voir les observations et prévisions météorologiques.

Pour changer de carte: cliquez sur les boutons verts avec une croix noire pour zoomer, sur le bouton vert avec un tiret pour effectuer un zoom arrière, ou sur les flèches vertes pour les cartes adjacentes.


METAR-TAF: